createdAt,value
2018-11-27T00:00:52.866Z,32.90
2018-11-27T00:02:23.624Z,32.50
2018-11-27T00:03:23.607Z,36.30
2018-11-27T00:04:23.593Z,32.80
2018-11-27T00:05:23.584Z,34.30
2018-11-27T00:06:23.571Z,36.50
2018-11-27T00:07:23.561Z,35.70
2018-11-27T00:08:23.558Z,35.50
2018-11-27T00:09:23.541Z,35.10
2018-11-27T00:10:23.531Z,35.10
2018-11-27T00:11:23.517Z,35.10
2018-11-27T00:12:23.517Z,34.80
2018-11-27T00:13:23.504Z,34.50
2018-11-27T00:14:23.493Z,34.70
2018-11-27T00:15:23.480Z,35.20
2018-11-27T00:16:23.467Z,34.20
2018-11-27T00:17:23.455Z,38.10
2018-11-27T00:18:23.452Z,35.10
2018-11-27T00:19:23.439Z,34.60
2018-11-27T00:20:23.424Z,36.20
2018-11-27T00:21:23.429Z,33.50
2018-11-27T00:22:23.406Z,35.70
2018-11-27T00:23:23.405Z,34.00
2018-11-27T00:24:23.412Z,35.40
2018-11-27T00:25:23.376Z,37.00
2018-11-27T00:26:23.362Z,34.40
2018-11-27T00:27:23.355Z,34.90
2018-11-27T00:28:23.342Z,36.70
2018-11-27T00:29:23.330Z,36.50
2018-11-27T00:30:23.325Z,36.80
2018-11-27T00:31:23.308Z,37.30
2018-11-27T00:32:23.304Z,35.30
2018-11-27T00:33:23.293Z,36.10
2018-11-27T00:34:23.283Z,35.30
2018-11-27T00:35:23.273Z,37.30
2018-11-27T00:36:23.262Z,40.90
2018-11-27T00:37:23.252Z,37.20
2018-11-27T00:38:23.239Z,39.30
2018-11-27T00:39:23.237Z,37.80
2018-11-27T00:40:23.217Z,37.90
2018-11-27T00:41:23.215Z,36.80
2018-11-27T00:42:23.196Z,36.50
2018-11-27T00:43:23.187Z,37.20
2018-11-27T00:44:23.177Z,37.90
2018-11-27T00:45:23.165Z,35.40
2018-11-27T00:46:23.158Z,36.10
2018-11-27T00:47:23.142Z,37.50
2018-11-27T00:48:23.138Z,37.00
2018-11-27T00:49:23.121Z,37.20
2018-11-27T00:50:23.115Z,35.30
2018-11-27T00:51:23.098Z,37.90
2018-11-27T00:52:23.092Z,36.60
2018-11-27T00:53:23.085Z,39.70
2018-11-27T00:54:23.075Z,33.60
2018-11-27T00:55:23.060Z,35.00
2018-11-27T00:56:23.047Z,37.30
2018-11-27T00:57:23.040Z,36.30
2018-11-27T00:58:23.031Z,35.00
2018-11-27T00:59:23.013Z,36.50
2018-11-27T01:00:23.006Z,38.40
2018-11-27T01:01:22.993Z,36.80
2018-11-27T01:02:22.982Z,36.20
2018-11-27T01:03:22.978Z,35.80
2018-11-27T01:04:22.973Z,36.40
2018-11-27T01:05:22.957Z,37.30
2018-11-27T01:06:22.950Z,36.30
2018-11-27T01:07:22.931Z,35.80
2018-11-27T01:08:22.927Z,36.80
2018-11-27T01:09:22.911Z,35.60
2018-11-27T01:10:22.904Z,35.40
2018-11-27T01:11:22.891Z,36.00
2018-11-27T01:12:22.883Z,36.40
2018-11-27T01:13:22.869Z,36.80
2018-11-27T01:14:22.863Z,37.80
2018-11-27T01:15:22.847Z,36.70
2018-11-27T01:16:22.839Z,38.60
2018-11-27T01:17:22.825Z,36.60
2018-11-27T01:18:22.816Z,35.30
2018-11-27T01:19:22.806Z,37.10
2018-11-27T01:20:22.801Z,36.20
2018-11-27T01:21:22.787Z,37.00
2018-11-27T01:22:22.776Z,36.70
2018-11-27T01:23:22.769Z,35.80
2018-11-27T01:24:22.762Z,39.40
2018-11-27T01:25:22.742Z,36.70
2018-11-27T01:26:22.729Z,36.90
2018-11-27T01:27:22.725Z,38.00
2018-11-27T01:28:22.711Z,39.70
2018-11-27T01:29:22.701Z,36.60
2018-11-27T01:30:22.692Z,37.20
2018-11-27T01:31:22.683Z,36.60
2018-11-27T01:32:22.675Z,35.20
2018-11-27T01:33:22.658Z,39.50
2018-11-27T01:34:22.651Z,36.50
2018-11-27T01:35:22.636Z,38.10
2018-11-27T01:36:22.633Z,36.80
2018-11-27T01:37:22.617Z,37.80
2018-11-27T01:38:22.605Z,37.60
2018-11-27T01:39:22.603Z,37.10
2018-11-27T01:40:22.588Z,36.20
2018-11-27T01:41:22.571Z,36.30
2018-11-27T01:42:22.570Z,38.40
2018-11-27T01:43:22.557Z,37.10
2018-11-27T01:44:22.547Z,37.20
2018-11-27T01:45:22.531Z,37.40
2018-11-27T01:46:22.523Z,33.80
2018-11-27T01:47:22.515Z,37.60
2018-11-27T01:48:22.505Z,35.10
2018-11-27T01:49:22.493Z,36.50
2018-11-27T01:50:22.479Z,35.00
2018-11-27T01:51:22.476Z,39.40
2018-11-27T01:52:22.463Z,35.40
2018-11-27T01:53:22.449Z,37.00
2018-11-27T01:54:22.444Z,37.40
2018-11-27T01:55:22.432Z,35.50
2018-11-27T01:56:22.417Z,35.90
2018-11-27T01:57:22.413Z,37.10
2018-11-27T01:58:22.405Z,36.10
2018-11-27T01:59:22.385Z,37.80
2018-11-27T02:00:22.375Z,38.30
2018-11-27T02:01:22.367Z,34.90
2018-11-27T02:02:22.359Z,37.10
2018-11-27T02:03:22.350Z,37.70
2018-11-27T02:04:22.338Z,34.50
2018-11-27T02:05:22.325Z,37.30
2018-11-27T02:06:22.317Z,37.90
2018-11-27T02:07:22.301Z,35.80
2018-11-27T02:08:22.300Z,34.60
2018-11-27T02:09:22.281Z,38.90
2018-11-27T02:10:22.271Z,38.20
2018-11-27T02:11:22.266Z,35.60
2018-11-27T02:12:22.248Z,37.30
2018-11-27T02:13:22.245Z,37.90
2018-11-27T02:14:22.233Z,38.10
2018-11-27T02:15:22.223Z,38.70
2018-11-27T02:16:22.213Z,37.00
2018-11-27T02:17:22.201Z,36.90
2018-11-27T02:18:22.201Z,37.70
2018-11-27T02:19:22.180Z,37.40
2018-11-27T02:20:22.167Z,38.60
2018-11-27T02:21:22.155Z,35.50
2018-11-27T02:22:22.144Z,38.90
2018-11-27T02:23:22.140Z,37.00
2018-11-27T02:24:22.134Z,37.20
2018-11-27T02:25:22.119Z,34.60
2018-11-27T02:26:22.106Z,36.40
2018-11-27T02:27:22.097Z,35.00
2018-11-27T02:28:22.088Z,36.00
2018-11-27T02:29:22.078Z,35.40
2018-11-27T02:30:22.064Z,35.00
2018-11-27T02:31:22.058Z,34.50
2018-11-27T02:32:22.059Z,38.30
2018-11-27T02:33:22.028Z,33.90
2018-11-27T02:34:22.026Z,36.40
2018-11-27T02:35:22.011Z,36.10
2018-11-27T02:36:22.004Z,37.50
2018-11-27T02:37:21.990Z,36.50
2018-11-27T02:38:21.982Z,37.80
2018-11-27T02:39:21.971Z,34.60
2018-11-27T02:40:21.963Z,37.20
2018-11-27T02:41:21.946Z,35.80
2018-11-27T02:42:21.941Z,35.60
2018-11-27T02:43:21.939Z,36.10
2018-11-27T02:44:21.919Z,34.80
2018-11-27T02:45:21.908Z,34.10
2018-11-27T02:46:21.899Z,35.80
2018-11-27T02:47:21.888Z,37.10
2018-11-27T02:48:21.876Z,32.30
2018-11-27T02:49:21.877Z,36.50
2018-11-27T02:50:21.858Z,36.80
2018-11-27T02:51:21.845Z,36.20
2018-11-27T02:52:21.838Z,35.90
2018-11-27T02:53:21.820Z,35.20
2018-11-27T02:54:21.818Z,35.40
2018-11-27T02:55:21.804Z,35.20
2018-11-27T02:56:21.792Z,37.20
2018-11-27T02:57:21.785Z,37.20
2018-11-27T02:58:21.769Z,37.70
2018-11-27T02:59:21.762Z,37.30
2018-11-27T03:00:21.757Z,37.40
2018-11-27T03:01:21.740Z,35.70
2018-11-27T03:02:21.742Z,38.60
2018-11-27T03:03:21.714Z,36.60
2018-11-27T03:04:21.708Z,35.80
2018-11-27T03:05:21.702Z,36.60
2018-11-27T03:06:21.689Z,39.40
2018-11-27T03:07:21.674Z,35.10
2018-11-27T03:08:22.670Z,35.80
2018-11-27T03:09:21.650Z,35.90
2018-11-27T03:10:21.640Z,34.40
2018-11-27T03:11:21.642Z,35.50
2018-11-27T03:12:21.626Z,36.30
2018-11-27T03:13:21.614Z,35.90
2018-11-27T03:14:21.610Z,35.90
2018-11-27T03:15:21.595Z,37.00
2018-11-27T03:16:21.582Z,36.20
2018-11-27T03:17:21.568Z,39.50
2018-11-27T03:18:21.561Z,35.80
2018-11-27T03:19:21.546Z,36.30
2018-11-27T03:20:21.587Z,34.50
2018-11-27T03:21:21.526Z,36.00
2018-11-27T03:22:21.514Z,37.50
2018-11-27T03:23:21.511Z,35.40
2018-11-27T03:24:21.499Z,36.30
2018-11-27T03:25:21.487Z,36.70
2018-11-27T03:26:21.477Z,36.80
2018-11-27T03:27:21.464Z,35.20
2018-11-27T03:28:21.457Z,37.30
2018-11-27T03:29:21.454Z,36.50
2018-11-27T03:30:21.430Z,38.50
2018-11-27T03:31:21.424Z,38.10
2018-11-27T03:32:21.415Z,36.50
2018-11-27T03:33:21.404Z,36.20
2018-11-27T03:34:21.390Z,34.50
2018-11-27T03:35:21.383Z,37.00
2018-11-27T03:36:21.372Z,36.80
2018-11-27T03:37:21.363Z,35.70
2018-11-27T03:38:21.351Z,34.60
2018-11-27T03:39:21.344Z,35.40
2018-11-27T03:40:21.328Z,34.70
2018-11-27T03:41:21.332Z,34.80
2018-11-27T03:42:21.313Z,36.30
2018-11-27T03:43:21.295Z,35.40
2018-11-27T03:44:21.281Z,36.30
2018-11-27T03:45:21.285Z,36.80
2018-11-27T03:46:21.270Z,37.80
2018-11-27T03:47:21.258Z,37.10
2018-11-27T03:48:21.243Z,36.20
2018-11-27T03:49:21.233Z,35.40
2018-11-27T03:50:21.227Z,37.10
2018-11-27T03:51:21.212Z,37.40
2018-11-27T03:52:21.201Z,35.60
2018-11-27T03:53:21.188Z,37.80
2018-11-27T03:54:21.178Z,35.70
2018-11-27T03:55:21.174Z,37.70
2018-11-27T03:56:21.164Z,39.20
2018-11-27T03:57:21.159Z,36.20
2018-11-27T03:58:21.142Z,36.70
2018-11-27T03:59:21.138Z,38.00
2018-11-27T04:00:21.116Z,37.00
2018-11-27T04:01:21.110Z,37.50
2018-11-27T04:02:21.106Z,35.60
2018-11-27T04:03:21.090Z,36.10
2018-11-27T04:04:21.087Z,37.80
2018-11-27T04:05:21.073Z,34.60
2018-11-27T04:06:21.066Z,36.50
2018-11-27T04:07:21.041Z,35.10
2018-11-27T04:08:21.031Z,37.40
2018-11-27T04:09:21.030Z,37.20
2018-11-27T04:10:21.016Z,36.90
2018-11-27T04:11:21.003Z,38.60
2018-11-27T04:12:20.998Z,36.90
2018-11-27T04:13:20.985Z,36.50
2018-11-27T04:14:20.975Z,38.70
2018-11-27T04:15:20.958Z,37.50
2018-11-27T04:16:20.948Z,35.20
2018-11-27T04:17:20.940Z,38.40
2018-11-27T04:18:20.929Z,38.30
2018-11-27T04:19:20.923Z,40.90
2018-11-27T04:20:20.906Z,37.30
2018-11-27T04:21:20.919Z,37.10
2018-11-27T04:22:20.886Z,35.50
2018-11-27T04:23:20.875Z,38.50
2018-11-27T04:24:20.866Z,36.30
2018-11-27T04:25:20.855Z,36.50
2018-11-27T04:26:20.842Z,35.90
2018-11-27T04:27:20.833Z,37.20
2018-11-27T04:28:20.823Z,36.50
2018-11-27T04:29:20.813Z,33.90
2018-11-27T04:30:20.804Z,37.50
2018-11-27T04:31:20.789Z,36.20
2018-11-27T04:32:20.780Z,35.90
2018-11-27T04:33:20.785Z,35.60
2018-11-27T04:34:20.760Z,36.00
2018-11-27T04:35:20.753Z,35.90
2018-11-27T04:36:20.741Z,37.10
2018-11-27T04:37:20.737Z,36.20
2018-11-27T04:38:20.722Z,37.70
2018-11-27T04:39:20.708Z,37.20
2018-11-27T04:40:20.696Z,36.50
2018-11-27T04:41:20.686Z,38.30
2018-11-27T04:42:20.676Z,35.50
2018-11-27T04:43:20.669Z,38.00
2018-11-27T04:44:20.655Z,34.20
2018-11-27T04:45:20.641Z,38.00
2018-11-27T04:46:20.632Z,37.00
2018-11-27T04:47:20.619Z,34.00
2018-11-27T04:48:20.611Z,37.60
2018-11-27T04:49:20.603Z,36.70
2018-11-27T04:50:20.585Z,37.40
2018-11-27T04:51:20.581Z,34.20
2018-11-27T04:52:20.574Z,35.30
2018-11-27T04:53:20.564Z,36.50
2018-11-27T04:54:20.545Z,33.80
2018-11-27T04:55:20.538Z,37.50
2018-11-27T04:56:20.524Z,36.90
2018-11-27T04:57:20.520Z,36.60
2018-11-27T04:58:20.505Z,35.70
2018-11-27T04:59:20.498Z,37.00
2018-11-27T05:00:20.488Z,37.70
2018-11-27T05:01:20.469Z,35.90
2018-11-27T05:02:20.463Z,38.70
2018-11-27T05:03:20.456Z,37.60
2018-11-27T05:04:20.441Z,35.30
2018-11-27T05:05:20.425Z,34.70
2018-11-27T05:06:20.422Z,37.60
2018-11-27T05:07:20.404Z,34.50
2018-11-27T05:08:20.403Z,35.70
2018-11-27T05:09:20.386Z,34.50
2018-11-27T05:10:20.378Z,36.80
2018-11-27T05:11:20.368Z,35.10
2018-11-27T05:12:20.356Z,37.70
2018-11-27T05:13:20.345Z,34.80
2018-11-27T05:14:20.333Z,34.90
2018-11-27T05:15:20.324Z,35.80
2018-11-27T05:16:20.315Z,35.00
2018-11-27T05:17:20.307Z,34.40
2018-11-27T05:18:20.293Z,35.40
2018-11-27T05:19:20.281Z,35.50
2018-11-27T05:20:20.273Z,34.40
2018-11-27T05:21:20.257Z,36.40
2018-11-27T05:22:20.248Z,35.80
2018-11-27T05:23:20.239Z,34.10
2018-11-27T05:24:20.226Z,35.40
2018-11-27T05:25:20.220Z,33.90
2018-11-27T05:26:20.205Z,34.70
2018-11-27T05:27:20.198Z,34.70
2018-11-27T05:28:20.181Z,35.70
2018-11-27T05:29:20.176Z,32.10
2018-11-27T05:30:20.162Z,35.20
2018-11-27T05:31:20.156Z,35.40
2018-11-27T05:32:20.141Z,34.50
2018-11-27T05:33:20.132Z,33.90
2018-11-27T05:34:20.122Z,36.80
2018-11-27T05:35:20.117Z,34.30
2018-11-27T05:36:20.097Z,33.80
2018-11-27T05:37:20.093Z,35.20
2018-11-27T05:38:20.080Z,34.30
2018-11-27T05:39:20.069Z,37.20
2018-11-27T05:40:20.063Z,34.40
2018-11-27T05:41:20.049Z,37.40
2018-11-27T05:42:20.055Z,34.70
2018-11-27T05:43:20.025Z,34.90
2018-11-27T05:44:20.010Z,35.20
2018-11-27T05:45:20.006Z,36.40
2018-11-27T05:46:19.998Z,34.70
2018-11-27T05:47:19.987Z,36.20
2018-11-27T05:48:19.976Z,36.40
2018-11-27T05:49:19.961Z,33.40
2018-11-27T05:50:19.954Z,34.50
2018-11-27T05:51:19.940Z,34.20
2018-11-27T05:52:19.937Z,34.80
2018-11-27T05:53:19.921Z,32.50
2018-11-27T05:54:19.911Z,34.30
2018-11-27T05:55:19.901Z,34.70
2018-11-27T05:56:19.890Z,33.80
2018-11-27T05:57:20.631Z,34.40
2018-11-27T05:58:19.868Z,35.10
2018-11-27T05:59:19.857Z,35.90
2018-11-27T06:00:19.845Z,34.60
2018-11-27T06:01:19.839Z,34.20
2018-11-27T06:02:19.822Z,33.60
2018-11-27T06:03:19.813Z,34.10
2018-11-27T06:04:19.807Z,34.70
2018-11-27T06:05:19.803Z,32.30
2018-11-27T06:06:19.784Z,33.90
2018-11-27T06:07:19.766Z,36.30
2018-11-27T06:08:19.760Z,34.70
2018-11-27T06:09:19.758Z,34.00
2018-11-27T06:10:19.743Z,35.00
2018-11-27T06:11:19.730Z,35.00
2018-11-27T06:12:19.719Z,33.80
2018-11-27T06:13:19.712Z,32.60
2018-11-27T06:14:19.702Z,33.30
2018-11-27T06:15:19.688Z,34.10
2018-11-27T06:16:19.675Z,35.00
2018-11-27T06:17:19.662Z,32.50
2018-11-27T06:18:19.657Z,34.80
2018-11-27T06:19:19.644Z,33.70
2018-11-27T06:20:19.633Z,34.00
2018-11-27T06:21:19.624Z,38.90
2018-11-27T06:22:19.615Z,34.20
2018-11-27T06:23:19.605Z,34.60
2018-11-27T06:24:19.590Z,33.70
2018-11-27T06:25:19.580Z,35.60
2018-11-27T06:26:19.575Z,33.60
2018-11-27T06:27:19.574Z,34.70
2018-11-27T06:28:19.547Z,33.00
2018-11-27T06:29:19.544Z,33.10
2018-11-27T06:30:19.527Z,34.90
2018-11-27T06:31:19.523Z,33.40
2018-11-27T06:32:21.515Z,34.60
2018-11-27T06:33:19.502Z,33.30
2018-11-27T06:34:19.482Z,33.10
2018-11-27T06:35:19.478Z,33.70
2018-11-27T06:36:19.467Z,33.00
2018-11-27T06:37:19.457Z,31.30
2018-11-27T06:38:19.443Z,32.40
2018-11-27T06:39:19.436Z,33.60
2018-11-27T06:40:19.424Z,32.90
2018-11-27T06:41:19.410Z,31.00
2018-11-27T06:42:19.402Z,32.20
2018-11-27T06:43:19.402Z,33.60
2018-11-27T06:44:19.384Z,32.00
2018-11-27T06:45:19.370Z,32.40
2018-11-27T06:46:19.359Z,32.30
2018-11-27T06:47:19.351Z,32.00
2018-11-27T06:48:19.335Z,31.80
2018-11-27T06:49:19.333Z,32.20
2018-11-27T06:50:19.317Z,32.10
2018-11-27T06:51:19.311Z,30.80
2018-11-27T06:52:19.295Z,30.00
2018-11-27T06:53:19.286Z,31.20
2018-11-27T06:54:19.276Z,30.00
2018-11-27T06:55:19.261Z,32.90
2018-11-27T06:56:19.254Z,31.00
2018-11-27T06:57:19.246Z,32.50
2018-11-27T06:58:19.238Z,32.10
2018-11-27T06:59:19.224Z,31.60
2018-11-27T07:00:19.215Z,30.80
2018-11-27T07:01:19.206Z,31.50
2018-11-27T07:02:19.192Z,31.10
2018-11-27T07:03:19.178Z,32.10
2018-11-27T07:04:19.169Z,29.00
2018-11-27T07:05:19.162Z,29.90
2018-11-27T07:06:19.146Z,29.90
2018-11-27T07:07:19.137Z,28.50
2018-11-27T07:08:19.126Z,29.50
2018-11-27T07:09:19.116Z,30.60
2018-11-27T07:10:19.105Z,30.80
2018-11-27T07:11:19.096Z,30.40
2018-11-27T07:12:19.084Z,30.70
2018-11-27T07:13:19.072Z,31.70
2018-11-27T07:14:19.059Z,29.50
2018-11-27T07:15:19.051Z,32.00
2018-11-27T07:16:19.040Z,31.30
2018-11-27T07:17:19.030Z,31.30
2018-11-27T07:18:19.019Z,29.00
2018-11-27T07:19:19.008Z,31.10
2018-11-27T07:20:19.003Z,30.40
2018-11-27T07:21:18.992Z,30.20
2018-11-27T07:22:18.973Z,32.10
2018-11-27T07:23:19.003Z,31.40
2018-11-27T07:24:18.955Z,31.20
2018-11-27T07:25:18.948Z,31.20
2018-11-27T07:26:18.940Z,33.10
2018-11-27T07:27:18.929Z,29.50
2018-11-27T07:28:18.914Z,30.70
2018-11-27T07:29:18.907Z,30.70
2018-11-27T07:30:18.896Z,32.30
2018-11-27T07:31:18.886Z,31.10
2018-11-27T07:32:18.872Z,32.70
2018-11-27T07:33:18.865Z,31.80
2018-11-27T07:34:18.858Z,32.40
2018-11-27T07:35:18.841Z,32.00
2018-11-27T07:36:18.829Z,31.00
2018-11-27T07:37:18.819Z,30.00
2018-11-27T07:38:18.813Z,31.00
2018-11-27T07:39:18.808Z,32.20
2018-11-27T07:40:18.790Z,31.60
2018-11-27T07:41:18.780Z,31.00
2018-11-27T07:42:18.768Z,31.40
2018-11-27T07:43:18.759Z,29.30
2018-11-27T07:44:18.748Z,30.50
2018-11-27T07:45:18.739Z,29.60
2018-11-27T07:46:18.728Z,30.20
2018-11-27T07:47:18.714Z,30.80
2018-11-27T07:48:18.704Z,33.10
2018-11-27T07:49:18.701Z,30.10
2018-11-27T07:50:18.695Z,31.20
2018-11-27T07:51:18.673Z,29.20
2018-11-27T07:52:18.658Z,26.90
2018-11-27T07:53:18.652Z,29.90
2018-11-27T07:54:18.643Z,27.50
2018-11-27T07:55:18.636Z,30.20
2018-11-27T07:56:18.623Z,30.60
2018-11-27T07:57:18.611Z,30.90
2018-11-27T07:58:18.606Z,29.90
2018-11-27T07:59:18.594Z,28.00
2018-11-27T08:00:18.577Z,28.90
2018-11-27T08:01:18.563Z,30.60
2018-11-27T08:02:18.558Z,29.80
2018-11-27T08:03:18.543Z,30.10
2018-11-27T08:04:18.533Z,30.30
2018-11-27T08:05:18.524Z,29.60
2018-11-27T08:06:18.519Z,27.70
2018-11-27T08:07:18.502Z,29.20
2018-11-27T08:08:18.498Z,28.10
2018-11-27T08:09:18.488Z,28.80
2018-11-27T08:10:18.489Z,27.80
2018-11-27T08:11:18.469Z,26.50
2018-11-27T08:12:18.453Z,25.60
2018-11-27T08:13:18.446Z,26.10
2018-11-27T08:14:18.434Z,27.20
2018-11-27T08:15:18.471Z,27.80
2018-11-27T08:16:18.416Z,28.90
2018-11-27T08:17:18.405Z,28.50
2018-11-27T08:18:18.392Z,27.40
2018-11-27T08:19:18.375Z,28.00
2018-11-27T08:20:18.364Z,29.30
2018-11-27T08:21:18.359Z,29.90
2018-11-27T08:22:18.347Z,30.50
2018-11-27T08:23:18.339Z,27.70
2018-11-27T08:24:18.330Z,28.60
2018-11-27T08:25:18.314Z,28.90
2018-11-27T08:26:18.302Z,27.20
2018-11-27T08:27:18.297Z,27.30
2018-11-27T08:28:18.285Z,27.20
2018-11-27T08:29:18.282Z,26.60
2018-11-27T08:30:18.273Z,26.30
2018-11-27T08:31:18.248Z,26.30
2018-11-27T08:32:18.237Z,27.20
2018-11-27T08:33:18.233Z,26.90
2018-11-27T08:34:18.223Z,24.90
2018-11-27T08:35:18.209Z,23.90
2018-11-27T08:36:18.193Z,26.60
2018-11-27T08:37:18.185Z,24.50
2018-11-27T08:38:18.177Z,25.10
2018-11-27T08:39:18.164Z,23.30
2018-11-27T08:40:18.160Z,27.50
2018-11-27T08:41:18.144Z,27.10
2018-11-27T08:42:18.134Z,26.00
2018-11-27T08:43:18.120Z,24.50
2018-11-27T08:44:18.112Z,24.80
2018-11-27T08:45:18.099Z,27.40
2018-11-27T08:46:18.097Z,24.10
2018-11-27T08:47:18.078Z,25.80
2018-11-27T08:48:18.077Z,24.00
2018-11-27T08:49:18.059Z,23.50
2018-11-27T08:50:18.059Z,23.30
2018-11-27T08:51:18.037Z,24.80
2018-11-27T08:52:18.031Z,24.30
2018-11-27T08:53:18.020Z,24.10
2018-11-27T08:54:18.007Z,26.20
2018-11-27T08:55:18.005Z,23.90
2018-11-27T08:56:17.987Z,23.40
2018-11-27T08:57:17.973Z,24.90
2018-11-27T08:58:17.961Z,25.80
2018-11-27T08:59:17.961Z,26.60
2018-11-27T09:00:17.939Z,23.80
2018-11-27T09:01:17.938Z,23.80
2018-11-27T09:02:17.926Z,22.10
2018-11-27T09:03:17.911Z,23.60
2018-11-27T09:04:17.905Z,23.80
2018-11-27T09:05:17.890Z,24.50
2018-11-27T09:06:17.879Z,24.10
2018-11-27T09:07:17.875Z,23.40
2018-11-27T09:08:17.859Z,23.20
2018-11-27T09:09:17.855Z,22.30
2018-11-27T09:10:17.842Z,22.90
2018-11-27T09:11:17.825Z,22.80
2018-11-27T09:12:17.817Z,23.00
2018-11-27T09:13:17.957Z,21.50
2018-11-27T09:14:17.799Z,24.60
2018-11-27T09:15:17.792Z,22.10
2018-11-27T09:16:17.778Z,22.40
2018-11-27T09:17:17.760Z,20.70
2018-11-27T09:18:17.753Z,22.50
2018-11-27T09:19:17.745Z,21.90
2018-11-27T09:20:17.733Z,21.40
2018-11-27T09:21:17.720Z,20.30
2018-11-27T09:22:17.710Z,21.90
2018-11-27T09:23:17.699Z,21.00
2018-11-27T09:24:17.691Z,20.40
2018-11-27T09:25:17.678Z,20.60
2018-11-27T09:26:17.672Z,21.60
2018-11-27T09:27:17.656Z,22.70
2018-11-27T09:28:17.649Z,21.30
2018-11-27T09:29:17.643Z,20.40
2018-11-27T09:30:17.620Z,21.20
2018-11-27T09:31:17.619Z,20.00
2018-11-27T09:32:17.602Z,21.50
2018-11-27T09:33:17.607Z,21.10
2018-11-27T09:34:17.587Z,22.10
2018-11-27T09:35:17.593Z,21.40
2018-11-27T09:36:17.562Z,22.30
2018-11-27T09:37:17.552Z,21.70
2018-11-27T09:38:17.534Z,20.60
2018-11-27T09:39:17.533Z,21.50
2018-11-27T09:40:17.515Z,20.60
2018-11-27T09:41:17.506Z,20.90
2018-11-27T09:42:17.499Z,22.00
2018-11-27T09:43:17.487Z,21.00
2018-11-27T09:44:17.490Z,22.40
2018-11-27T09:45:17.464Z,22.10
2018-11-27T09:46:17.458Z,21.20
2018-11-27T09:47:17.440Z,22.20
2018-11-27T09:48:17.435Z,21.40
2018-11-27T09:49:17.421Z,22.90
2018-11-27T09:50:17.412Z,21.20
2018-11-27T09:51:17.397Z,21.10
2018-11-27T09:52:17.388Z,20.40
2018-11-27T09:53:17.376Z,22.10
2018-11-27T09:54:17.370Z,20.70
2018-11-27T09:55:17.368Z,21.20
2018-11-27T09:56:17.349Z,22.30
2018-11-27T09:57:17.338Z,20.90
2018-11-27T09:58:17.330Z,21.00
2018-11-27T09:59:17.316Z,21.50
2018-11-27T10:00:17.308Z,20.80
2018-11-27T10:01:17.290Z,23.50
2018-11-27T10:02:17.287Z,21.20
2018-11-27T10:03:17.277Z,20.20
2018-11-27T10:04:17.253Z,19.60
2018-11-27T10:05:17.269Z,19.70
2018-11-27T10:06:17.237Z,19.00
2018-11-27T10:07:17.231Z,21.40
2018-11-27T10:08:17.225Z,22.00
2018-11-27T10:09:17.208Z,20.90
2018-11-27T10:10:17.201Z,20.70
2018-11-27T10:11:17.182Z,21.40
2018-11-27T10:12:17.173Z,22.40
2018-11-27T10:13:17.163Z,21.10
2018-11-27T10:14:17.150Z,21.90
2018-11-27T10:15:17.196Z,20.40
2018-11-27T10:16:17.147Z,21.00
2018-11-27T10:17:17.116Z,21.50
2018-11-27T10:18:17.110Z,20.60
2018-11-27T10:19:17.097Z,21.00
2018-11-27T10:20:17.086Z,21.00
2018-11-27T10:21:17.081Z,21.10
2018-11-27T10:22:17.064Z,20.50
2018-11-27T10:23:17.053Z,20.60
2018-11-27T10:24:17.043Z,22.40
2018-11-27T10:25:17.031Z,21.70
2018-11-27T10:26:17.027Z,21.80
2018-11-27T10:27:17.019Z,22.30
2018-11-27T10:28:16.997Z,21.50
2018-11-27T10:29:16.986Z,23.90
2018-11-27T10:30:16.979Z,21.90
2018-11-27T10:31:16.974Z,20.90
2018-11-27T10:32:16.954Z,22.70
2018-11-27T10:33:16.943Z,19.20
2018-11-27T10:34:16.937Z,22.60
2018-11-27T10:35:16.923Z,20.80
2018-11-27T10:36:16.911Z,21.20
2018-11-27T10:37:16.907Z,20.60
2018-11-27T10:38:16.897Z,20.60
2018-11-27T10:39:16.881Z,20.40
2018-11-27T10:40:16.878Z,19.90
2018-11-27T10:41:16.865Z,20.70
2018-11-27T10:42:16.844Z,20.90
2018-11-27T10:43:19.733Z,20.20
2018-11-27T10:44:16.844Z,20.00
2018-11-27T10:45:16.821Z,19.30
2018-11-27T10:46:16.810Z,18.90
2018-11-27T10:47:16.795Z,21.20
2018-11-27T10:48:16.787Z,18.90
2018-11-27T10:49:16.777Z,17.30
2018-11-27T10:50:16.765Z,18.20
2018-11-27T10:51:16.751Z,16.60
2018-11-27T10:52:16.743Z,18.80
2018-11-27T10:53:16.735Z,19.80
2018-11-27T10:54:16.720Z,17.90
2018-11-27T10:55:16.707Z,18.70
2018-11-27T10:56:16.699Z,18.60
2018-11-27T10:57:16.687Z,20.00
2018-11-27T10:58:16.679Z,19.10
2018-11-27T10:59:16.669Z,20.70
2018-11-27T11:00:16.661Z,18.60
2018-11-27T11:01:16.650Z,19.20
2018-11-27T11:02:16.633Z,18.40
2018-11-27T11:03:16.624Z,18.80
2018-11-27T11:04:16.617Z,19.90
2018-11-27T11:05:16.601Z,19.80
2018-11-27T11:06:16.596Z,18.20
2018-11-27T11:07:16.584Z,17.40
2018-11-27T11:08:16.571Z,18.70
2018-11-27T11:09:16.563Z,18.30
2018-11-27T11:10:16.552Z,20.70
2018-11-27T11:11:16.537Z,18.70
2018-11-27T11:12:16.529Z,20.80
2018-11-27T11:13:16.515Z,19.20
2018-11-27T11:14:16.509Z,20.80
2018-11-27T11:15:16.495Z,20.50
2018-11-27T11:16:16.485Z,19.60
2018-11-27T11:17:16.477Z,22.80
2018-11-27T11:18:16.464Z,20.20
2018-11-27T11:19:18.484Z,21.20
2018-11-27T11:20:16.449Z,18.70
2018-11-27T11:21:16.429Z,21.00
2018-11-27T11:22:16.417Z,19.70
2018-11-27T11:23:16.412Z,19.00
2018-11-27T11:24:16.403Z,19.30
2018-11-27T11:25:16.387Z,20.20
2018-11-27T11:26:16.383Z,21.00
2018-11-27T11:27:16.362Z,20.70
2018-11-27T11:28:16.351Z,19.40
2018-11-27T11:29:16.345Z,20.50
2018-11-27T11:30:16.335Z,22.20
2018-11-27T11:31:16.328Z,18.80
2018-11-27T11:32:16.316Z,19.60
2018-11-27T11:33:16.305Z,19.80
2018-11-27T11:34:16.292Z,21.70
2018-11-27T11:35:16.279Z,18.90
2018-11-27T11:36:16.270Z,21.50
2018-11-27T11:37:16.261Z,20.00
2018-11-27T11:38:16.251Z,18.80
2018-11-27T11:39:16.247Z,20.20
2018-11-27T11:40:16.233Z,20.00
2018-11-27T11:41:16.219Z,19.30
2018-11-27T11:42:16.211Z,19.80
2018-11-27T11:43:16.200Z,19.00
2018-11-27T11:44:16.191Z,17.50
2018-11-27T11:45:16.179Z,18.00
2018-11-27T11:46:16.168Z,18.10
2018-11-27T11:47:16.158Z,17.70
2018-11-27T11:48:16.149Z,15.80
2018-11-27T11:49:16.134Z,16.30
2018-11-27T11:50:16.128Z,17.30
2018-11-27T11:51:16.116Z,18.60
2018-11-27T11:52:16.102Z,19.70
2018-11-27T11:53:16.092Z,17.50
2018-11-27T11:54:16.080Z,18.20
2018-11-27T11:55:16.074Z,18.70
2018-11-27T11:56:16.059Z,20.00
2018-11-27T11:57:16.051Z,18.50
2018-11-27T11:58:16.050Z,18.10
2018-11-27T11:59:16.033Z,21.00
2018-11-27T12:00:16.016Z,16.50
2018-11-27T12:01:16.006Z,17.50
2018-11-27T12:02:15.997Z,18.80
2018-11-27T12:03:15.993Z,17.70
2018-11-27T12:04:15.979Z,18.00
2018-11-27T12:05:15.971Z,19.80
2018-11-27T12:06:15.965Z,17.20
2018-11-27T12:07:15.944Z,18.90
2018-11-27T12:08:15.935Z,16.80
2018-11-27T12:09:15.926Z,18.20
2018-11-27T12:10:15.913Z,19.30
2018-11-27T12:11:15.903Z,19.70
2018-11-27T12:12:15.895Z,19.20
2018-11-27T12:13:15.881Z,19.80
2018-11-27T12:14:15.867Z,21.60
2018-11-27T12:15:15.857Z,20.00
2018-11-27T12:16:15.849Z,19.90
2018-11-27T12:17:15.843Z,22.10
2018-11-27T12:18:15.829Z,22.50
2018-11-27T12:19:15.811Z,20.60
2018-11-27T12:20:15.811Z,21.50
2018-11-27T12:21:15.796Z,21.70
2018-11-27T12:22:15.786Z,23.50
2018-11-27T12:23:15.772Z,22.80
2018-11-27T12:24:15.764Z,23.00
2018-11-27T12:25:15.754Z,22.20
2018-11-27T12:26:15.744Z,21.90
2018-11-27T12:27:15.731Z,22.50
2018-11-27T12:28:15.719Z,24.60
2018-11-27T12:29:15.716Z,25.50
2018-11-27T12:30:15.703Z,23.50
2018-11-27T12:31:15.690Z,24.70
2018-11-27T12:32:15.675Z,25.80
2018-11-27T12:33:15.669Z,26.60
2018-11-27T12:34:15.660Z,25.20
2018-11-27T12:35:15.650Z,25.80
2018-11-27T12:36:15.640Z,24.80
2018-11-27T12:37:15.629Z,26.80
2018-11-27T12:38:15.615Z,28.20
2018-11-27T12:39:15.622Z,29.20
2018-11-27T12:40:15.594Z,26.50
2018-11-27T12:41:15.582Z,26.30
2018-11-27T12:42:15.572Z,29.40
2018-11-27T12:43:15.577Z,31.90
2018-11-27T12:44:15.549Z,29.90
2018-11-27T12:45:15.541Z,29.20
2018-11-27T12:46:15.533Z,30.20
2018-11-27T12:47:15.570Z,29.90
2018-11-27T12:48:15.507Z,30.80
2018-11-27T12:49:15.497Z,30.10
2018-11-27T12:50:15.492Z,31.20
2018-11-27T12:51:15.942Z,31.60
2018-11-27T12:52:15.467Z,33.00
2018-11-27T12:53:17.040Z,32.60